sensor_id;sensor_type;location;lat;lon;timestamp;P1;durP1;ratioP1;P2;durP2;ratioP2
553;SDS011;59;48.778;9.156;2022-09-12T00:01:05;9.93;;;7.47;;
553;SDS011;59;48.778;9.156;2022-09-12T00:03:35;9.20;;;7.93;;
553;SDS011;59;48.778;9.156;2022-09-12T00:06:06;8.40;;;7.10;;
553;SDS011;59;48.778;9.156;2022-09-12T00:08:38;11.70;;;8.60;;
553;SDS011;59;48.778;9.156;2022-09-12T00:11:05;10.57;;;8.07;;
553;SDS011;59;48.778;9.156;2022-09-12T00:13:32;8.97;;;8.10;;
553;SDS011;59;48.778;9.156;2022-09-12T00:15:57;8.07;;;7.20;;
553;SDS011;59;48.778;9.156;2022-09-12T00:18:23;8.07;;;7.00;;
553;SDS011;59;48.778;9.156;2022-09-12T00:20:49;9.93;;;7.77;;
553;SDS011;59;48.778;9.156;2022-09-12T00:23:14;13.30;;;8.30;;
553;SDS011;59;48.778;9.156;2022-09-12T00:25:44;8.77;;;8.07;;
553;SDS011;59;48.778;9.156;2022-09-12T00:28:14;10.00;;;8.20;;
553;SDS011;59;48.778;9.156;2022-09-12T00:30:44;8.00;;;6.93;;
553;SDS011;59;48.778;9.156;2022-09-12T00:33:11;10.10;;;7.83;;
553;SDS011;59;48.778;9.156;2022-09-12T00:35:41;11.17;;;8.43;;
553;SDS011;59;48.778;9.156;2022-09-12T00:38:11;9.23;;;7.87;;
553;SDS011;59;48.778;9.156;2022-09-12T00:40:39;8.20;;;7.67;;
553;SDS011;59;48.778;9.156;2022-09-12T00:43:05;9.50;;;8.37;;
553;SDS011;59;48.778;9.156;2022-09-12T00:45:53;10.20;;;8.40;;
553;SDS011;59;48.778;9.156;2022-09-12T00:48:21;8.63;;;7.70;;
553;SDS011;59;48.778;9.156;2022-09-12T00:50:53;8.57;;;8.13;;
553;SDS011;59;48.778;9.156;2022-09-12T00:53:19;10.50;;;8.40;;
553;SDS011;59;48.778;9.156;2022-09-12T00:55:45;9.63;;;8.63;;
553;SDS011;59;48.778;9.156;2022-09-12T00:58:57;9.87;;;8.20;;
553;SDS011;59;48.778;9.156;2022-09-12T01:01:07;8.73;;;7.73;;
553;SDS011;59;48.778;9.156;2022-09-12T01:03:33;9.87;;;8.27;;
553;SDS011;59;48.778;9.156;2022-09-12T01:08:38;8.70;;;7.90;;
553;SDS011;59;48.778;9.156;2022-09-12T01:11:05;9.80;;;7.90;;
553;SDS011;59;48.778;9.156;2022-09-12T01:13:33;8.83;;;8.03;;
553;SDS011;59;48.778;9.156;2022-09-12T01:16:00;15.20;;;8.37;;
553;SDS011;59;48.778;9.156;2022-09-12T01:18:30;10.30;;;8.07;;
553;SDS011;59;48.778;9.156;2022-09-12T01:21:10;9.73;;;7.53;;
553;SDS011;59;48.778;9.156;2022-09-12T01:29:42;10.83;;;8.27;;
553;SDS011;59;48.778;9.156;2022-09-12T01:35:47;9.70;;;8.23;;
553;SDS011;59;48.778;9.156;2022-09-12T01:38:46;8.90;;;7.23;;
553;SDS011;59;48.778;9.156;2022-09-12T01:44:08;9.97;;;8.10;;
553;SDS011;59;48.778;9.156;2022-09-12T01:47:11;10.50;;;8.30;;
553;SDS011;59;48.778;9.156;2022-09-12T01:52:19;10.47;;;8.73;;
553;SDS011;59;48.778;9.156;2022-09-12T01:54:52;9.37;;;7.87;;
553;SDS011;59;48.778;9.156;2022-09-12T01:57:26;10.70;;;7.50;;
553;SDS011;59;48.778;9.156;2022-09-12T01:59:55;9.20;;;7.90;;
553;SDS011;59;48.778;9.156;2022-09-12T02:02:35;9.80;;;8.13;;
553;SDS011;59;48.778;9.156;2022-09-12T02:05:10;9.70;;;8.43;;
553;SDS011;59;48.778;9.156;2022-09-12T02:10:08;9.90;;;8.33;;
553;SDS011;59;48.778;9.156;2022-09-12T02:12:42;10.43;;;8.70;;
553;SDS011;59;48.778;9.156;2022-09-12T02:15:10;9.03;;;7.63;;
553;SDS011;59;48.778;9.156;2022-09-12T02:17:38;9.07;;;7.90;;
553;SDS011;59;48.778;9.156;2022-09-12T02:22:39;9.10;;;7.90;;
553;SDS011;59;48.778;9.156;2022-09-12T02:25:06;10.60;;;8.37;;
553;SDS011;59;48.778;9.156;2022-09-12T02:27:40;11.93;;;8.80;;
553;SDS011;59;48.778;9.156;2022-09-12T02:30:11;10.60;;;8.47;;
553;SDS011;59;48.778;9.156;2022-09-12T02:35:18;9.30;;;8.33;;
553;SDS011;59;48.778;9.156;2022-09-12T02:40:21;9.30;;;8.10;;
553;SDS011;59;48.778;9.156;2022-09-12T02:42:47;10.27;;;8.70;;
553;SDS011;59;48.778;9.156;2022-09-12T02:45:13;8.07;;;7.20;;
553;SDS011;59;48.778;9.156;2022-09-12T02:47:43;10.53;;;8.07;;
553;SDS011;59;48.778;9.156;2022-09-12T02:50:12;9.27;;;8.23;;
553;SDS011;59;48.778;9.156;2022-09-12T02:52:37;10.20;;;8.00;;
553;SDS011;59;48.778;9.156;2022-09-12T02:55:04;9.90;;;7.70;;
553;SDS011;59;48.778;9.156;2022-09-12T02:57:30;9.73;;;8.13;;
553;SDS011;59;48.778;9.156;2022-09-12T02:59:57;10.43;;;8.10;;
553;SDS011;59;48.778;9.156;2022-09-12T03:21:15;10.90;;;8.97;;
553;SDS011;59;48.778;9.156;2022-09-12T03:23:46;13.83;;;10.07;;
553;SDS011;59;48.778;9.156;2022-09-12T03:26:41;10.97;;;9.10;;
553;SDS011;59;48.778;9.156;2022-09-12T03:29:13;11.50;;;8.57;;
553;SDS011;59;48.778;9.156;2022-09-12T03:31:52;11.07;;;9.80;;
553;SDS011;59;48.778;9.156;2022-09-12T03:34:19;10.27;;;8.70;;
553;SDS011;59;48.778;9.156;2022-09-12T03:36:46;13.57;;;9.17;;
553;SDS011;59;48.778;9.156;2022-09-12T03:39:12;9.70;;;8.43;;
553;SDS011;59;48.778;9.156;2022-09-12T03:41:38;14.17;;;9.37;;
553;SDS011;59;48.778;9.156;2022-09-12T03:44:03;9.07;;;8.60;;
553;SDS011;59;48.778;9.156;2022-09-12T03:46:29;9.13;;;7.80;;
553;SDS011;59;48.778;9.156;2022-09-12T03:48:55;12.17;;;9.47;;
553;SDS011;59;48.778;9.156;2022-09-12T03:51:21;11.40;;;9.27;;
553;SDS011;59;48.778;9.156;2022-09-12T03:53:46;9.50;;;8.57;;
553;SDS011;59;48.778;9.156;2022-09-12T03:56:12;11.13;;;9.13;;
553;SDS011;59;48.778;9.156;2022-09-12T03:58:39;11.30;;;8.97;;
553;SDS011;59;48.778;9.156;2022-09-12T04:01:11;11.37;;;9.67;;
553;SDS011;59;48.778;9.156;2022-09-12T04:03:45;10.43;;;8.00;;
553;SDS011;59;48.778;9.156;2022-09-12T04:06:13;11.07;;;8.87;;
553;SDS011;59;48.778;9.156;2022-09-12T04:08:43;10.50;;;8.47;;
553;SDS011;59;48.778;9.156;2022-09-12T04:11:13;9.93;;;8.50;;
553;SDS011;59;48.778;9.156;2022-09-12T04:13:40;10.27;;;8.70;;
553;SDS011;59;48.778;9.156;2022-09-12T04:16:07;10.47;;;8.30;;
553;SDS011;59;48.778;9.156;2022-09-12T04:18:33;12.17;;;8.33;;
553;SDS011;59;48.778;9.156;2022-09-12T04:21:18;12.60;;;9.33;;
553;SDS011;59;48.778;9.156;2022-09-12T04:23:46;9.87;;;8.60;;
553;SDS011;59;48.778;9.156;2022-09-12T04:26:13;11.00;;;9.20;;
553;SDS011;59;48.778;9.156;2022-09-12T04:28:41;10.87;;;8.67;;
553;SDS011;59;48.778;9.156;2022-09-12T04:31:08;13.30;;;9.83;;
553;SDS011;59;48.778;9.156;2022-09-12T04:33:36;10.90;;;8.80;;
553;SDS011;59;48.778;9.156;2022-09-12T04:36:05;22.07;;;18.17;;
553;SDS011;59;48.778;9.156;2022-09-12T04:38:40;22.00;;;17.83;;
553;SDS011;59;48.778;9.156;2022-09-12T04:41:17;18.50;;;13.90;;
553;SDS011;59;48.778;9.156;2022-09-12T04:43:50;14.10;;;11.37;;
553;SDS011;59;48.778;9.156;2022-09-12T04:46:17;12.53;;;10.10;;
553;SDS011;59;48.778;9.156;2022-09-12T04:48:46;12.57;;;10.73;;
553;SDS011;59;48.778;9.156;2022-09-12T04:51:17;13.80;;;10.20;;
553;SDS011;59;48.778;9.156;2022-09-12T04:53:48;11.97;;;8.90;;
553;SDS011;59;48.778;9.156;2022-09-12T04:56:16;13.87;;;10.40;;
553;SDS011;59;48.778;9.156;2022-09-12T04:58:43;13.40;;;10.23;;
553;SDS011;59;48.778;9.156;2022-09-12T05:01:10;12.00;;;9.80;;
553;SDS011;59;48.778;9.156;2022-09-12T05:03:38;11.80;;;9.30;;
553;SDS011;59;48.778;9.156;2022-09-12T05:06:07;11.97;;;9.60;;
553;SDS011;59;48.778;9.156;2022-09-12T05:08:37;10.77;;;9.10;;
553;SDS011;59;48.778;9.156;2022-09-12T05:11:04;12.33;;;9.30;;
553;SDS011;59;48.778;9.156;2022-09-12T05:13:44;12.27;;;9.97;;
553;SDS011;59;48.778;9.156;2022-09-12T05:16:10;12.60;;;9.70;;
553;SDS011;59;48.778;9.156;2022-09-12T05:18:37;13.10;;;11.03;;
553;SDS011;59;48.778;9.156;2022-09-12T05:21:04;13.83;;;10.60;;
553;SDS011;59;48.778;9.156;2022-09-12T05:23:31;12.60;;;10.13;;
553;SDS011;59;48.778;9.156;2022-09-12T05:25:58;12.00;;;9.70;;
553;SDS011;59;48.778;9.156;2022-09-12T05:28:27;12.83;;;10.10;;
553;SDS011;59;48.778;9.156;2022-09-12T05:33:35;13.27;;;10.60;;
553;SDS011;59;48.778;9.156;2022-09-12T05:36:03;11.20;;;9.10;;
553;SDS011;59;48.778;9.156;2022-09-12T05:38:30;10.73;;;8.90;;
553;SDS011;59;48.778;9.156;2022-09-12T05:43:30;14.57;;;10.50;;
553;SDS011;59;48.778;9.156;2022-09-12T05:46:01;12.13;;;9.77;;
553;SDS011;59;48.778;9.156;2022-09-12T05:48:28;14.70;;;9.50;;
553;SDS011;59;48.778;9.156;2022-09-12T05:51:01;13.03;;;8.63;;
553;SDS011;59;48.778;9.156;2022-09-12T05:53:37;12.23;;;9.30;;
553;SDS011;59;48.778;9.156;2022-09-12T05:56:08;10.30;;;8.23;;
553;SDS011;59;48.778;9.156;2022-09-12T05:58:51;11.33;;;8.90;;
553;SDS011;59;48.778;9.156;2022-09-12T06:01:24;12.43;;;8.60;;
553;SDS011;59;48.778;9.156;2022-09-12T06:03:51;16.53;;;12.80;;
553;SDS011;59;48.778;9.156;2022-09-12T06:06:19;16.10;;;12.37;;
553;SDS011;59;48.778;9.156;2022-09-12T06:08:47;15.50;;;10.80;;
553;SDS011;59;48.778;9.156;2022-09-12T06:11:19;14.33;;;10.43;;
553;SDS011;59;48.778;9.156;2022-09-12T06:13:47;11.87;;;9.17;;
553;SDS011;59;48.778;9.156;2022-09-12T06:16:14;9.27;;;8.47;;
553;SDS011;59;48.778;9.156;2022-09-12T06:18:45;11.13;;;8.83;;
553;SDS011;59;48.778;9.156;2022-09-12T06:21:19;9.03;;;7.40;;
553;SDS011;59;48.778;9.156;2022-09-12T06:23:45;9.00;;;7.30;;
553;SDS011;59;48.778;9.156;2022-09-12T06:26:12;10.13;;;7.97;;
553;SDS011;59;48.778;9.156;2022-09-12T06:28:38;10.57;;;7.97;;
553;SDS011;59;48.778;9.156;2022-09-12T06:31:12;9.20;;;7.60;;
553;SDS011;59;48.778;9.156;2022-09-12T06:33:40;9.20;;;8.10;;
553;SDS011;59;48.778;9.156;2022-09-12T06:36:08;9.03;;;7.93;;
553;SDS011;59;48.778;9.156;2022-09-12T06:38:36;8.70;;;8.03;;
553;SDS011;59;48.778;9.156;2022-09-12T06:41:05;20.00;;;16.10;;
553;SDS011;59;48.778;9.156;2022-09-12T06:43:32;16.50;;;12.90;;
553;SDS011;59;48.778;9.156;2022-09-12T06:45:59;16.63;;;13.10;;
553;SDS011;59;48.778;9.156;2022-09-12T06:48:25;13.23;;;10.60;;
553;SDS011;59;48.778;9.156;2022-09-12T06:51:02;12.27;;;9.63;;
553;SDS011;59;48.778;9.156;2022-09-12T06:53:31;12.10;;;9.47;;
553;SDS011;59;48.778;9.156;2022-09-12T06:55:58;16.07;;;10.50;;
553;SDS011;59;48.778;9.156;2022-09-12T06:58:28;11.20;;;9.10;;
553;SDS011;59;48.778;9.156;2022-09-12T07:01:05;13.33;;;9.87;;
553;SDS011;59;48.778;9.156;2022-09-12T07:03:34;17.33;;;12.00;;
553;SDS011;59;48.778;9.156;2022-09-12T07:06:04;13.60;;;10.43;;
553;SDS011;59;48.778;9.156;2022-09-12T07:08:39;11.67;;;8.87;;
553;SDS011;59;48.778;9.156;2022-09-12T07:11:18;10.03;;;8.63;;
553;SDS011;59;48.778;9.156;2022-09-12T07:13:49;9.60;;;8.13;;
553;SDS011;59;48.778;9.156;2022-09-12T07:16:20;11.70;;;9.43;;
553;SDS011;59;48.778;9.156;2022-09-12T07:18:52;16.57;;;11.80;;
553;SDS011;59;48.778;9.156;2022-09-12T07:21:20;16.73;;;11.60;;
553;SDS011;59;48.778;9.156;2022-09-12T07:23:46;11.90;;;9.80;;
553;SDS011;59;48.778;9.156;2022-09-12T07:26:15;11.07;;;8.00;;
553;SDS011;59;48.778;9.156;2022-09-12T07:28:41;17.57;;;10.67;;
553;SDS011;59;48.778;9.156;2022-09-12T07:31:14;11.20;;;9.30;;
553;SDS011;59;48.778;9.156;2022-09-12T07:33:41;7.93;;;7.23;;
553;SDS011;59;48.778;9.156;2022-09-12T07:36:10;8.17;;;6.50;;
553;SDS011;59;48.778;9.156;2022-09-12T07:38:38;6.07;;;5.80;;
553;SDS011;59;48.778;9.156;2022-09-12T07:41:10;9.70;;;7.47;;
553;SDS011;59;48.778;9.156;2022-09-12T07:43:38;10.60;;;7.83;;
553;SDS011;59;48.778;9.156;2022-09-12T07:46:04;8.73;;;6.90;;
553;SDS011;59;48.778;9.156;2022-09-12T07:48:30;8.53;;;6.50;;
553;SDS011;59;48.778;9.156;2022-09-12T07:50:57;6.90;;;6.07;;
553;SDS011;59;48.778;9.156;2022-09-12T07:53:31;6.53;;;5.90;;
553;SDS011;59;48.778;9.156;2022-09-12T07:56:03;8.00;;;6.50;;
553;SDS011;59;48.778;9.156;2022-09-12T07:58:29;8.97;;;6.97;;
553;SDS011;59;48.778;9.156;2022-09-12T08:03:32;8.37;;;7.23;;
553;SDS011;59;48.778;9.156;2022-09-12T08:06:03;8.53;;;6.43;;
553;SDS011;59;48.778;9.156;2022-09-12T08:08:35;7.33;;;6.57;;
553;SDS011;59;48.778;9.156;2022-09-12T08:11:04;7.67;;;6.10;;
553;SDS011;59;48.778;9.156;2022-09-12T08:13:32;16.37;;;12.07;;
553;SDS011;59;48.778;9.156;2022-09-12T08:15:59;19.17;;;14.37;;
553;SDS011;59;48.778;9.156;2022-09-12T08:18:45;20.53;;;16.13;;
553;SDS011;59;48.778;9.156;2022-09-12T08:21:12;17.53;;;14.17;;
553;SDS011;59;48.778;9.156;2022-09-12T08:23:39;18.17;;;13.40;;
553;SDS011;59;48.778;9.156;2022-09-12T08:26:06;16.40;;;12.00;;
553;SDS011;59;48.778;9.156;2022-09-12T08:28:33;12.73;;;10.07;;
553;SDS011;59;48.778;9.156;2022-09-12T08:31:00;11.00;;;8.80;;
553;SDS011;59;48.778;9.156;2022-09-12T08:33:33;11.10;;;8.57;;
553;SDS011;59;48.778;9.156;2022-09-12T08:36:08;12.00;;;8.50;;
553;SDS011;59;48.778;9.156;2022-09-12T08:38:40;8.67;;;7.70;;
553;SDS011;59;48.778;9.156;2022-09-12T08:41:20;7.53;;;6.60;;
553;SDS011;59;48.778;9.156;2022-09-12T08:54:48;7.00;;;5.70;;
553;SDS011;59;48.778;9.156;2022-09-12T08:57:14;7.40;;;5.63;;
553;SDS011;59;48.778;9.156;2022-09-12T08:59:41;6.07;;;5.20;;
553;SDS011;59;48.778;9.156;2022-09-12T09:05:10;12.20;;;5.60;;
553;SDS011;59;48.778;9.156;2022-09-12T09:11:11;7.50;;;5.50;;
553;SDS011;59;48.778;9.156;2022-09-12T09:16:43;5.20;;;4.40;;
553;SDS011;59;48.778;9.156;2022-09-12T09:19:27;5.40;;;4.30;;
553;SDS011;59;48.778;9.156;2022-09-12T09:22:01;5.83;;;5.20;;
553;SDS011;59;48.778;9.156;2022-09-12T09:24:42;6.40;;;5.20;;
553;SDS011;59;48.778;9.156;2022-09-12T09:27:34;10.27;;;5.57;;
553;SDS011;59;48.778;9.156;2022-09-12T09:30:24;4.90;;;4.60;;
553;SDS011;59;48.778;9.156;2022-09-12T09:32:51;7.83;;;4.77;;
553;SDS011;59;48.778;9.156;2022-09-12T09:37:57;5.03;;;3.80;;
553;SDS011;59;48.778;9.156;2022-09-12T09:40:26;4.90;;;4.30;;
553;SDS011;59;48.778;9.156;2022-09-12T09:45:35;9.57;;;8.37;;
553;SDS011;59;48.778;9.156;2022-09-12T09:50:48;7.40;;;6.40;;
553;SDS011;59;48.778;9.156;2022-09-12T09:53:26;6.40;;;5.00;;
553;SDS011;59;48.778;9.156;2022-09-12T09:56:00;8.50;;;4.60;;
553;SDS011;59;48.778;9.156;2022-09-12T09:58:33;6.60;;;4.40;;
553;SDS011;59;48.778;9.156;2022-09-12T10:01:00;5.10;;;4.67;;
553;SDS011;59;48.778;9.156;2022-09-12T10:03:37;5.10;;;4.23;;
553;SDS011;59;48.778;9.156;2022-09-12T10:06:24;3.93;;;3.40;;
553;SDS011;59;48.778;9.156;2022-09-12T10:11:57;3.03;;;2.83;;
553;SDS011;59;48.778;9.156;2022-09-12T10:14:36;4.60;;;2.93;;
553;SDS011;59;48.778;9.156;2022-09-12T10:19:49;10.53;;;8.27;;
553;SDS011;59;48.778;9.156;2022-09-12T10:22:18;5.07;;;4.80;;
553;SDS011;59;48.778;9.156;2022-09-12T10:24:47;4.03;;;3.73;;
553;SDS011;59;48.778;9.156;2022-09-12T10:27:21;6.90;;;3.20;;
553;SDS011;59;48.778;9.156;2022-09-12T10:29:55;3.43;;;3.23;;
553;SDS011;59;48.778;9.156;2022-09-12T10:32:38;3.00;;;2.80;;
553;SDS011;59;48.778;9.156;2022-09-12T10:35:07;3.30;;;3.13;;
553;SDS011;59;48.778;9.156;2022-09-12T10:37:59;4.77;;;3.40;;
553;SDS011;59;48.778;9.156;2022-09-12T10:40:27;3.43;;;3.23;;
553;SDS011;59;48.778;9.156;2022-09-12T10:42:57;3.40;;;2.90;;
553;SDS011;59;48.778;9.156;2022-09-12T10:45:25;4.33;;;2.83;;
553;SDS011;59;48.778;9.156;2022-09-12T10:47:58;5.77;;;3.40;;
553;SDS011;59;48.778;9.156;2022-09-12T10:50:27;4.80;;;3.23;;
553;SDS011;59;48.778;9.156;2022-09-12T10:53:11;4.97;;;3.10;;
553;SDS011;59;48.778;9.156;2022-09-12T10:55:54;2.90;;;2.70;;
553;SDS011;59;48.778;9.156;2022-09-12T11:03:52;2.77;;;2.60;;
553;SDS011;59;48.778;9.156;2022-09-12T11:06:26;3.67;;;2.60;;
553;SDS011;59;48.778;9.156;2022-09-12T11:17:46;4.27;;;4.00;;
553;SDS011;59;48.778;9.156;2022-09-12T11:35:48;1.90;;;1.80;;
553;SDS011;59;48.778;9.156;2022-09-12T11:40:51;3.07;;;1.97;;
553;SDS011;59;48.778;9.156;2022-09-12T11:46:00;3.80;;;2.10;;
553;SDS011;59;48.778;9.156;2022-09-12T11:48:37;5.30;;;1.90;;
553;SDS011;59;48.778;9.156;2022-09-12T11:51:43;2.47;;;1.60;;
553;SDS011;59;48.778;9.156;2022-09-12T11:57:18;25.60;;;21.30;;
553;SDS011;59;48.778;9.156;2022-09-12T12:02:53;6.93;;;5.97;;
553;SDS011;59;48.778;9.156;2022-09-12T12:08:30;3.13;;;2.00;;
553;SDS011;59;48.778;9.156;2022-09-12T12:10:59;2.23;;;2.03;;
553;SDS011;59;48.778;9.156;2022-09-12T12:13:30;2.63;;;1.90;;
553;SDS011;59;48.778;9.156;2022-09-12T12:16:05;1.40;;;1.40;;
553;SDS011;59;48.778;9.156;2022-09-12T12:19:32;1.87;;;1.77;;
553;SDS011;59;48.778;9.156;2022-09-12T12:21:48;3.07;;;2.10;;
553;SDS011;59;48.778;9.156;2022-09-12T12:24:16;2.30;;;2.10;;
553;SDS011;59;48.778;9.156;2022-09-12T12:26:58;3.20;;;1.90;;
553;SDS011;59;48.778;9.156;2022-09-12T12:36:57;2.43;;;2.27;;
553;SDS011;59;48.778;9.156;2022-09-12T12:41:58;2.10;;;2.00;;
553;SDS011;59;48.778;9.156;2022-09-12T12:47:13;2.27;;;2.07;;
553;SDS011;59;48.778;9.156;2022-09-12T12:55:16;19.10;;;14.90;;
553;SDS011;59;48.778;9.156;2022-09-12T12:57:45;19.73;;;15.57;;
553;SDS011;59;48.778;9.156;2022-09-12T13:00:35;15.87;;;13.20;;
553;SDS011;59;48.778;9.156;2022-09-12T13:03:01;13.33;;;10.63;;
553;SDS011;59;48.778;9.156;2022-09-12T13:08:29;6.23;;;5.00;;
553;SDS011;59;48.778;9.156;2022-09-12T13:13:26;3.27;;;1.93;;
553;SDS011;59;48.778;9.156;2022-09-12T13:15:56;2.07;;;1.93;;
553;SDS011;59;48.778;9.156;2022-09-12T13:18:28;2.67;;;1.90;;
553;SDS011;59;48.778;9.156;2022-09-12T13:21:02;2.53;;;2.10;;
553;SDS011;59;48.778;9.156;2022-09-12T13:23:40;2.50;;;2.10;;
553;SDS011;59;48.778;9.156;2022-09-12T13:26:13;1.87;;;1.77;;
553;SDS011;59;48.778;9.156;2022-09-12T13:28:46;1.97;;;1.77;;
553;SDS011;59;48.778;9.156;2022-09-12T13:31:23;2.07;;;1.80;;
553;SDS011;59;48.778;9.156;2022-09-12T13:33:51;2.00;;;1.90;;
553;SDS011;59;48.778;9.156;2022-09-12T13:44:01;1.60;;;1.50;;
553;SDS011;59;48.778;9.156;2022-09-12T13:46:29;2.60;;;1.50;;
553;SDS011;59;48.778;9.156;2022-09-12T13:49:00;1.73;;;1.63;;
553;SDS011;59;48.778;9.156;2022-09-12T13:51:33;2.40;;;1.80;;
553;SDS011;59;48.778;9.156;2022-09-12T13:54:01;1.70;;;1.50;;
553;SDS011;59;48.778;9.156;2022-09-12T13:56:28;1.80;;;1.57;;
553;SDS011;59;48.778;9.156;2022-09-12T13:58:54;1.63;;;1.60;;
553;SDS011;59;48.778;9.156;2022-09-12T14:01:38;1.77;;;1.67;;
553;SDS011;59;48.778;9.156;2022-09-12T14:07:20;1.50;;;1.30;;
553;SDS011;59;48.778;9.156;2022-09-12T14:09:54;2.43;;;1.90;;
553;SDS011;59;48.778;9.156;2022-09-12T14:12:28;2.40;;;1.83;;
553;SDS011;59;48.778;9.156;2022-09-12T14:14:59;1.43;;;1.40;;
553;SDS011;59;48.778;9.156;2022-09-12T14:17:37;1.30;;;1.30;;
553;SDS011;59;48.778;9.156;2022-09-12T14:20:10;1.33;;;1.23;;
553;SDS011;59;48.778;9.156;2022-09-12T14:22:38;1.20;;;1.17;;
553;SDS011;59;48.778;9.156;2022-09-12T14:25:05;1.60;;;1.50;;
553;SDS011;59;48.778;9.156;2022-09-12T14:27:37;1.60;;;1.50;;
553;SDS011;59;48.778;9.156;2022-09-12T14:32:41;11.20;;;9.03;;
553;SDS011;59;48.778;9.156;2022-09-12T14:37:36;2.93;;;2.40;;
553;SDS011;59;48.778;9.156;2022-09-12T14:40:02;4.50;;;1.93;;
553;SDS011;59;48.778;9.156;2022-09-12T14:42:38;2.03;;;1.93;;
553;SDS011;59;48.778;9.156;2022-09-12T14:45:12;1.97;;;1.63;;
553;SDS011;59;48.778;9.156;2022-09-12T14:47:47;2.77;;;2.20;;
553;SDS011;59;48.778;9.156;2022-09-12T14:50:15;2.80;;;1.90;;
553;SDS011;59;48.778;9.156;2022-09-12T14:52:42;2.23;;;1.90;;
553;SDS011;59;48.778;9.156;2022-09-12T14:57:42;2.23;;;1.80;;
553;SDS011;59;48.778;9.156;2022-09-12T15:02:40;2.30;;;2.03;;
553;SDS011;59;48.778;9.156;2022-09-12T15:10:06;2.23;;;1.77;;
553;SDS011;59;48.778;9.156;2022-09-12T15:12:38;2.30;;;1.80;;
553;SDS011;59;48.778;9.156;2022-09-12T15:15:14;2.40;;;1.80;;
553;SDS011;59;48.778;9.156;2022-09-12T15:17:44;1.70;;;1.60;;
553;SDS011;59;48.778;9.156;2022-09-12T15:20:10;2.30;;;1.80;;
553;SDS011;59;48.778;9.156;2022-09-12T15:22:37;2.87;;;2.07;;
553;SDS011;59;48.778;9.156;2022-09-12T15:25:03;1.93;;;1.70;;
553;SDS011;59;48.778;9.156;2022-09-12T15:27:31;1.93;;;1.70;;
553;SDS011;59;48.778;9.156;2022-09-12T15:29:57;2.23;;;1.90;;
553;SDS011;59;48.778;9.156;2022-09-12T15:32:23;2.30;;;2.17;;
553;SDS011;59;48.778;9.156;2022-09-12T15:34:50;2.63;;;2.10;;
553;SDS011;59;48.778;9.156;2022-09-12T15:37:17;2.33;;;2.10;;
553;SDS011;59;48.778;9.156;2022-09-12T15:39:45;2.07;;;1.80;;
553;SDS011;59;48.778;9.156;2022-09-12T15:42:11;2.07;;;1.93;;
553;SDS011;59;48.778;9.156;2022-09-12T15:44:41;2.17;;;1.87;;
553;SDS011;59;48.778;9.156;2022-09-12T15:47:10;11.40;;;9.87;;
553;SDS011;59;48.778;9.156;2022-09-12T15:49:37;5.33;;;4.37;;
553;SDS011;59;48.778;9.156;2022-09-12T15:52:05;4.90;;;4.00;;
553;SDS011;59;48.778;9.156;2022-09-12T15:54:31;2.90;;;2.17;;
553;SDS011;59;48.778;9.156;2022-09-12T15:56:58;3.20;;;2.10;;
553;SDS011;59;48.778;9.156;2022-09-12T15:59:24;2.27;;;2.00;;
553;SDS011;59;48.778;9.156;2022-09-12T16:01:49;2.30;;;1.97;;
553;SDS011;59;48.778;9.156;2022-09-12T16:04:18;2.00;;;1.90;;
553;SDS011;59;48.778;9.156;2022-09-12T16:06:47;2.20;;;1.80;;
553;SDS011;59;48.778;9.156;2022-09-12T16:09:14;2.43;;;2.00;;
553;SDS011;59;48.778;9.156;2022-09-12T16:11:40;2.27;;;2.07;;
553;SDS011;59;48.778;9.156;2022-09-12T16:14:06;3.47;;;1.83;;
553;SDS011;59;48.778;9.156;2022-09-12T16:16:32;1.80;;;1.70;;
553;SDS011;59;48.778;9.156;2022-09-12T16:18:58;1.83;;;1.73;;
553;SDS011;59;48.778;9.156;2022-09-12T16:21:24;1.80;;;1.80;;
553;SDS011;59;48.778;9.156;2022-09-12T16:23:50;2.27;;;1.90;;
553;SDS011;59;48.778;9.156;2022-09-12T16:26:16;3.87;;;2.23;;
553;SDS011;59;48.778;9.156;2022-09-12T16:28:42;2.23;;;2.00;;
553;SDS011;59;48.778;9.156;2022-09-12T16:31:09;2.73;;;2.33;;
553;SDS011;59;48.778;9.156;2022-09-12T16:33:37;2.27;;;2.10;;
553;SDS011;59;48.778;9.156;2022-09-12T16:36:04;2.20;;;2.00;;
553;SDS011;59;48.778;9.156;2022-09-12T16:38:31;1.90;;;1.87;;
553;SDS011;59;48.778;9.156;2022-09-12T16:41:04;2.40;;;2.30;;
553;SDS011;59;48.778;9.156;2022-09-12T16:43:31;1.97;;;1.90;;
553;SDS011;59;48.778;9.156;2022-09-12T16:48:36;2.13;;;2.00;;
553;SDS011;59;48.778;9.156;2022-09-12T16:51:06;2.13;;;2.00;;
553;SDS011;59;48.778;9.156;2022-09-12T16:53:36;2.83;;;2.13;;
553;SDS011;59;48.778;9.156;2022-09-12T16:56:03;2.63;;;1.80;;
553;SDS011;59;48.778;9.156;2022-09-12T16:58:33;2.90;;;2.17;;
553;SDS011;59;48.778;9.156;2022-09-12T17:01:01;2.67;;;2.00;;
553;SDS011;59;48.778;9.156;2022-09-12T17:03:27;1.80;;;1.70;;
553;SDS011;59;48.778;9.156;2022-09-12T17:05:59;1.83;;;1.83;;
553;SDS011;59;48.778;9.156;2022-09-12T17:08:32;1.93;;;1.87;;
553;SDS011;59;48.778;9.156;2022-09-12T17:11:00;2.37;;;2.00;;
553;SDS011;59;48.778;9.156;2022-09-12T17:13:27;1.77;;;1.77;;
553;SDS011;59;48.778;9.156;2022-09-12T17:15:54;2.10;;;1.90;;
553;SDS011;59;48.778;9.156;2022-09-12T17:18:19;2.90;;;2.40;;
553;SDS011;59;48.778;9.156;2022-09-12T17:20:45;5.93;;;4.80;;
553;SDS011;59;48.778;9.156;2022-09-12T17:23:11;7.40;;;6.00;;
553;SDS011;59;48.778;9.156;2022-09-12T17:25:37;5.93;;;5.00;;
553;SDS011;59;48.778;9.156;2022-09-12T17:28:02;4.83;;;4.17;;
553;SDS011;59;48.778;9.156;2022-09-12T17:30:34;5.33;;;4.40;;
553;SDS011;59;48.778;9.156;2022-09-12T17:33:00;4.73;;;3.90;;
553;SDS011;59;48.778;9.156;2022-09-12T17:35:26;8.80;;;5.20;;
553;SDS011;59;48.778;9.156;2022-09-12T17:37:52;11.93;;;6.53;;
553;SDS011;59;48.778;9.156;2022-09-12T17:40:18;10.57;;;5.87;;
553;SDS011;59;48.778;9.156;2022-09-12T17:42:44;20.70;;;9.53;;
553;SDS011;59;48.778;9.156;2022-09-12T17:45:10;18.00;;;9.10;;
553;SDS011;59;48.778;9.156;2022-09-12T17:47:37;17.13;;;8.80;;
553;SDS011;59;48.778;9.156;2022-09-12T17:50:03;16.00;;;7.57;;
553;SDS011;59;48.778;9.156;2022-09-12T17:52:29;11.40;;;6.40;;
553;SDS011;59;48.778;9.156;2022-09-12T17:54:55;8.90;;;6.03;;
553;SDS011;59;48.778;9.156;2022-09-12T17:57:21;9.90;;;6.60;;
553;SDS011;59;48.778;9.156;2022-09-12T17:59:46;7.67;;;5.70;;
553;SDS011;59;48.778;9.156;2022-09-12T18:02:12;8.40;;;5.00;;
553;SDS011;59;48.778;9.156;2022-09-12T18:04:42;8.13;;;5.30;;
553;SDS011;59;48.778;9.156;2022-09-12T18:07:13;6.87;;;4.83;;
553;SDS011;59;48.778;9.156;2022-09-12T18:09:42;10.10;;;6.13;;
553;SDS011;59;48.778;9.156;2022-09-12T18:12:07;6.20;;;4.83;;
553;SDS011;59;48.778;9.156;2022-09-12T18:14:33;6.47;;;5.20;;
553;SDS011;59;48.778;9.156;2022-09-12T18:16:59;6.23;;;4.87;;
553;SDS011;59;48.778;9.156;2022-09-12T18:19:25;6.70;;;5.40;;
553;SDS011;59;48.778;9.156;2022-09-12T18:21:52;7.57;;;5.90;;
553;SDS011;59;48.778;9.156;2022-09-12T18:24:19;7.00;;;5.47;;
553;SDS011;59;48.778;9.156;2022-09-12T18:26:45;7.30;;;5.77;;
553;SDS011;59;48.778;9.156;2022-09-12T18:29:10;9.60;;;6.20;;
553;SDS011;59;48.778;9.156;2022-09-12T18:31:38;11.07;;;6.47;;
553;SDS011;59;48.778;9.156;2022-09-12T18:34:03;8.87;;;6.50;;
553;SDS011;59;48.778;9.156;2022-09-12T18:36:31;9.40;;;6.50;;
553;SDS011;59;48.778;9.156;2022-09-12T18:38:59;8.17;;;6.07;;
553;SDS011;59;48.778;9.156;2022-09-12T18:41:26;9.50;;;5.77;;
553;SDS011;59;48.778;9.156;2022-09-12T18:43:54;8.33;;;6.20;;
553;SDS011;59;48.778;9.156;2022-09-12T18:46:23;7.27;;;5.53;;
553;SDS011;59;48.778;9.156;2022-09-12T18:48:50;7.20;;;5.60;;
553;SDS011;59;48.778;9.156;2022-09-12T18:51:19;6.73;;;5.63;;
553;SDS011;59;48.778;9.156;2022-09-12T18:53:50;7.43;;;5.80;;
553;SDS011;59;48.778;9.156;2022-09-12T18:56:17;9.40;;;6.23;;
553;SDS011;59;48.778;9.156;2022-09-12T18:58:44;7.63;;;5.73;;
553;SDS011;59;48.778;9.156;2022-09-12T19:01:15;6.57;;;5.13;;
553;SDS011;59;48.778;9.156;2022-09-12T19:03:45;9.10;;;6.20;;
553;SDS011;59;48.778;9.156;2022-09-12T19:06:19;6.33;;;5.13;;
553;SDS011;59;48.778;9.156;2022-09-12T19:08:46;6.23;;;5.03;;
553;SDS011;59;48.778;9.156;2022-09-12T19:11:12;6.13;;;5.03;;
553;SDS011;59;48.778;9.156;2022-09-12T19:13:47;4.70;;;4.37;;
553;SDS011;59;48.778;9.156;2022-09-12T19:16:16;5.33;;;4.00;;
553;SDS011;59;48.778;9.156;2022-09-12T19:18:48;5.17;;;4.30;;